JBU1052 MMUN-KJFK
Flight info
| Callsign | JBU1052 |
|---|---|
| Flight time | N/A |
| Altitude | 37000 |
| Route | ROTGI1A ROTGI UM219 MYDIA M219 KNOST Q109 RIELE/N0439F390 Q109 DFENC DCT SAWED Q108 SIE CAMRN4 |
| Aircraft | A320/M-SDE3FGHIRWY/LB1 |
Departure
| Time | 2026-05-08 03:41 |
|---|---|
| Airport | Cancún International Airport (MMUN) |
Arrival
| Time | N/A |
|---|---|
| Airport | John F. Kennedy International Airport (KJFK) |
| Time | Latitude | Longitude | Altitude | Speed | Heading |
|---|---|---|---|---|---|
| 2026-05-08 02:40 | 21.04800 | -86.88273 | 24 ft | 0 kts | 142° |
| 2026-05-08 03:20 | 21.04807 | -86.88279 | 16 ft | 4 kts | 141° |
| 2026-05-08 03:20 | 21.04821 | -86.88291 | 26 ft | 4 kts | 140° |
| 2026-05-08 03:20 | 21.04838 | -86.88306 | 27 ft | 4 kts | 151° |
| 2026-05-08 03:21 | 21.04862 | -86.88313 | 26 ft | 4 kts | 195° |
| 2026-05-08 03:21 | 21.04884 | -86.88300 | 26 ft | 4 kts | 218° |
| 2026-05-08 03:21 | 21.04892 | -86.88293 | 26 ft | 0 kts | 214° |
| 2026-05-08 03:33 | 21.04887 | -86.88297 | 27 ft | 2 kts | 213° |
| 2026-05-08 03:33 | 21.04866 | -86.88312 | 24 ft | 6 kts | 213° |
| 2026-05-08 03:33 | 21.04829 | -86.88339 | 24 ft | 7 kts | 213° |
| 2026-05-08 03:34 | 21.04782 | -86.88372 | 24 ft | 9 kts | 213° |
| 2026-05-08 03:34 | 21.04721 | -86.88414 | 25 ft | 13 kts | 213° |
| 2026-05-08 03:34 | 21.04632 | -86.88478 | 24 ft | 17 kts | 213° |
| 2026-05-08 03:34 | 21.04530 | -86.88549 | 24 ft | 19 kts | 213° |
| 2026-05-08 03:35 | 21.04444 | -86.88626 | 24 ft | 12 kts | 260° |
| 2026-05-08 03:35 | 21.04483 | -86.88708 | 24 ft | 13 kts | 303° |
| 2026-05-08 03:35 | 21.04536 | -86.88794 | 25 ft | 14 kts | 303° |
| 2026-05-08 03:35 | 21.04607 | -86.88909 | 25 ft | 16 kts | 303° |
| 2026-05-08 03:36 | 21.04624 | -86.89013 | 24 ft | 15 kts | 226° |
| 2026-05-08 03:36 | 21.04612 | -86.89023 | 24 ft | 0 kts | 216° |
| 2026-05-08 03:37 | 21.04564 | -86.89061 | 23 ft | 13 kts | 213° |
| 2026-05-08 03:38 | 21.04489 | -86.89027 | 24 ft | 13 kts | 129° |
| 2026-05-08 03:38 | 21.04440 | -86.88948 | 23 ft | 0 kts | 123° |
| 2026-05-08 03:40 | 21.04435 | -86.88941 | 23 ft | 10 kts | 123° |
| 2026-05-08 03:40 | 21.04231 | -86.88617 | 25 ft | 93 kts | 124° |
| 2026-05-08 03:40 | 21.03741 | -86.87832 | 23 ft | 157 kts | 124° |
| 2026-05-08 03:40 | 21.03036 | -86.86742 | 241 ft | 188 kts | 126° |
| 2026-05-08 03:41 | 21.02288 | -86.85617 | 899 ft | 189 kts | 127° |
| 2026-05-08 03:41 | 21.01559 | -86.84382 | 1389 ft | 207 kts | 115° |
| 2026-05-08 03:41 | 21.01238 | -86.82774 | 1658 ft | 238 kts | 91° |
| 2026-05-08 03:41 | 21.01566 | -86.80976 | 2241 ft | 252 kts | 73° |
| 2026-05-08 03:42 | 21.02150 | -86.79222 | 2967 ft | 255 kts | 75° |
| 2026-05-08 03:42 | 21.02712 | -86.77400 | 3669 ft | 260 kts | 76° |
| 2026-05-08 03:42 | 21.03264 | -86.75548 | 4370 ft | 263 kts | 76° |
| 2026-05-08 03:42 | 21.03817 | -86.73673 | 5051 ft | 265 kts | 76° |
| 2026-05-08 03:43 | 21.04447 | -86.71807 | 5704 ft | 270 kts | 64° |
| 2026-05-08 03:43 | 21.05667 | -86.70249 | 6287 ft | 280 kts | 40° |
| 2026-05-08 03:43 | 21.07293 | -86.69070 | 6853 ft | 284 kts | 36° |
| 2026-05-08 03:43 | 21.08950 | -86.67901 | 7420 ft | 286 kts | 36° |
| 2026-05-08 03:44 | 21.10748 | -86.66967 | 7996 ft | 293 kts | 17° |
| 2026-05-08 03:44 | 21.12769 | -86.66803 | 8570 ft | 297 kts | 2° |
| 2026-05-08 03:44 | 21.14864 | -86.66821 | 8925 ft | 308 kts | 1° |
| 2026-05-08 03:44 | 21.17061 | -86.66840 | 9004 ft | 323 kts | 2° |
| 2026-05-08 03:45 | 21.19362 | -86.66858 | 9018 ft | 338 kts | 2° |
| 2026-05-08 03:45 | 21.21755 | -86.66877 | 9018 ft | 350 kts | 2° |
| 2026-05-08 03:45 | 21.24220 | -86.66893 | 9021 ft | 359 kts | 1° |
| 2026-05-08 03:45 | 21.26750 | -86.66908 | 9023 ft | 367 kts | 2° |
| 2026-05-08 03:46 | 21.29322 | -86.66921 | 9017 ft | 373 kts | 2° |
| 2026-05-08 03:46 | 21.31904 | -86.66935 | 9017 ft | 378 kts | 2° |
| 2026-05-08 03:46 | 21.34552 | -86.66947 | 9020 ft | 382 kts | 2° |
| 2026-05-08 03:46 | 21.37209 | -86.66958 | 9269 ft | 376 kts | 2° |
| 2026-05-08 03:47 | 21.39747 | -86.66976 | 10163 ft | 354 kts | 2° |
| 2026-05-08 03:47 | 21.42127 | -86.66993 | 11076 ft | 331 kts | 2° |
| 2026-05-08 03:47 | 21.44355 | -86.67007 | 12085 ft | 309 kts | 2° |
| 2026-05-08 03:47 | 21.46433 | -86.67020 | 13073 ft | 292 kts | 2° |
| 2026-05-08 03:48 | 21.48423 | -86.67030 | 13703 ft | 290 kts | 3° |
| 2026-05-08 03:48 | 21.50443 | -86.67037 | 14167 ft | 291 kts | 2° |
| 2026-05-08 03:48 | 21.52474 | -86.67042 | 14590 ft | 293 kts | 2° |
| 2026-05-08 03:48 | 21.54517 | -86.67047 | 14998 ft | 295 kts | 2° |
| 2026-05-08 03:49 | 21.56577 | -86.67052 | 15395 ft | 297 kts | 2° |
| 2026-05-08 03:49 | 21.58650 | -86.67059 | 15771 ft | 299 kts | 1° |
| 2026-05-08 03:49 | 21.60739 | -86.67067 | 16151 ft | 301 kts | 1° |
| 2026-05-08 03:49 | 21.62843 | -86.67077 | 16525 ft | 304 kts | 2° |
| 2026-05-08 03:50 | 21.64962 | -86.67089 | 16897 ft | 305 kts | 1° |
| 2026-05-08 03:50 | 21.67058 | -86.67100 | 17269 ft | 306 kts | 2° |
| 2026-05-08 03:50 | 21.69198 | -86.67110 | 17610 ft | 308 kts | 2° |
| 2026-05-08 03:50 | 21.71350 | -86.67120 | 17972 ft | 310 kts | 2° |
| 2026-05-08 03:51 | 21.71747 | -86.67122 | 18032 ft | 311 kts | 1° |
| 2026-05-08 03:51 | 21.73388 | -86.67101 | 18188 ft | 295 kts | 2° |
| 2026-05-08 03:51 | 21.75339 | -86.67103 | 18286 ft | 266 kts | 2° |
| 2026-05-08 03:52 | 21.77156 | -86.67140 | 17887 ft | 264 kts | 0° |
| 2026-05-08 03:52 | 21.79037 | -86.67200 | 17233 ft | 284 kts | 1° |
| 2026-05-08 03:52 | 21.80995 | -86.67169 | 17853 ft | 282 kts | 3° |
| 2026-05-08 03:52 | 21.83031 | -86.67123 | 18006 ft | 302 kts | 1° |
| 2026-05-08 03:53 | 21.85152 | -86.66946 | 18446 ft | 309 kts | 11° |
| 2026-05-08 03:53 | 21.87284 | -86.66515 | 18911 ft | 315 kts | 12° |
| 2026-05-08 03:53 | 21.89439 | -86.66039 | 19433 ft | 318 kts | 12° |
| 2026-05-08 03:53 | 21.91614 | -86.65537 | 19959 ft | 322 kts | 12° |
| 2026-05-08 03:54 | 21.93819 | -86.65019 | 20496 ft | 325 kts | 12° |
| 2026-05-08 03:54 | 21.95286 | -86.64672 | 20855 ft | 328 kts | 11° |
| 2026-05-08 03:54 | 21.98260 | -86.63975 | 21556 ft | 332 kts | 11° |
| 2026-05-08 03:54 | 22.00530 | -86.63448 | 22096 ft | 336 kts | 11° |
| 2026-05-08 03:55 | 22.02828 | -86.62918 | 22631 ft | 339 kts | 11° |
| 2026-05-08 03:55 | 22.05146 | -86.62386 | 23148 ft | 343 kts | 10° |
| 2026-05-08 03:55 | 22.07489 | -86.61849 | 23649 ft | 346 kts | 10° |
| 2026-05-08 03:55 | 22.09052 | -86.61489 | 23934 ft | 348 kts | 10° |
| 2026-05-08 03:56 | 22.11430 | -86.60940 | 24353 ft | 351 kts | 10° |
| 2026-05-08 03:56 | 22.13822 | -86.60386 | 24777 ft | 353 kts | 9° |
| 2026-05-08 03:56 | 22.17011 | -86.59646 | 25296 ft | 356 kts | 9° |
| 2026-05-08 03:56 | 22.19437 | -86.59085 | 25674 ft | 357 kts | 9° |
| 2026-05-08 03:57 | 22.21081 | -86.58704 | 25923 ft | 358 kts | 9° |
| 2026-05-08 03:57 | 22.23494 | -86.58147 | 26262 ft | 360 kts | 9° |
| 2026-05-08 03:57 | 22.25952 | -86.57579 | 26594 ft | 362 kts | 9° |
| 2026-05-08 03:57 | 22.28422 | -86.57006 | 26923 ft | 364 kts | 9° |
| 2026-05-08 03:58 | 22.30903 | -86.56431 | 27244 ft | 365 kts | 9° |
| 2026-05-08 03:58 | 22.34204 | -86.55665 | 27633 ft | 367 kts | 9° |
| 2026-05-08 03:58 | 22.36704 | -86.55085 | 27930 ft | 369 kts | 9° |
| 2026-05-08 03:58 | 22.38402 | -86.54693 | 28119 ft | 369 kts | 9° |
| 2026-05-08 03:59 | 22.41741 | -86.53926 | 28467 ft | 372 kts | 9° |
| 2026-05-08 03:59 | 22.43457 | -86.53532 | 28654 ft | 373 kts | 8° |
| 2026-05-08 03:59 | 22.45968 | -86.52954 | 28918 ft | 375 kts | 8° |
| 2026-05-08 03:59 | 22.48522 | -86.52362 | 29194 ft | 376 kts | 8° |
| 2026-05-08 04:00 | 22.51086 | -86.51768 | 29471 ft | 378 kts | 8° |
| 2026-05-08 04:00 | 22.53663 | -86.51168 | 29739 ft | 380 kts | 8° |
| 2026-05-08 04:00 | 22.56252 | -86.50562 | 30013 ft | 381 kts | 8° |
| 2026-05-08 04:00 | 22.58854 | -86.49954 | 30267 ft | 383 kts | 8° |
| 2026-05-08 04:01 | 22.61459 | -86.49347 | 30508 ft | 384 kts | 8° |
| 2026-05-08 04:01 | 22.64085 | -86.48737 | 30724 ft | 386 kts | 8° |
| 2026-05-08 04:01 | 22.66683 | -86.48133 | 30953 ft | 388 kts | 8° |
| 2026-05-08 04:01 | 22.69327 | -86.47521 | 31197 ft | 390 kts | 8° |
| 2026-05-08 04:02 | 22.71985 | -86.46904 | 31445 ft | 391 kts | 8° |
| 2026-05-08 04:02 | 22.74650 | -86.46280 | 31695 ft | 393 kts | 8° |
| 2026-05-08 04:02 | 22.77330 | -86.45652 | 31899 ft | 395 kts | 8° |
| 2026-05-08 04:02 | 22.80022 | -86.45020 | 32125 ft | 397 kts | 8° |
| 2026-05-08 04:03 | 22.82726 | -86.44387 | 32354 ft | 398 kts | 8° |
| 2026-05-08 04:03 | 22.88132 | -86.43132 | 32802 ft | 401 kts | 8° |
| 2026-05-08 04:03 | 22.90867 | -86.42497 | 32990 ft | 403 kts | 8° |
| 2026-05-08 04:04 | 22.93615 | -86.41859 | 33199 ft | 405 kts | 8° |
| 2026-05-08 04:04 | 22.96377 | -86.41213 | 33408 ft | 406 kts | 8° |
| 2026-05-08 04:04 | 22.99145 | -86.40566 | 33611 ft | 407 kts | 8° |
| 2026-05-08 04:04 | 23.01921 | -86.39917 | 33811 ft | 409 kts | 8° |
| 2026-05-08 04:05 | 23.04704 | -86.39264 | 33992 ft | 411 kts | 8° |
| 2026-05-08 04:05 | 23.07502 | -86.38606 | 34154 ft | 412 kts | 8° |
| 2026-05-08 04:05 | 23.10309 | -86.37946 | 34319 ft | 413 kts | 8° |
| 2026-05-08 04:05 | 23.13087 | -86.37293 | 34486 ft | 414 kts | 8° |
| 2026-05-08 04:06 | 23.15904 | -86.36632 | 34646 ft | 415 kts | 8° |
| 2026-05-08 04:06 | 23.18730 | -86.35969 | 34826 ft | 416 kts | 8° |
| 2026-05-08 04:06 | 23.21560 | -86.35307 | 34984 ft | 417 kts | 8° |
| 2026-05-08 04:06 | 23.24410 | -86.34642 | 35038 ft | 421 kts | 8° |
| 2026-05-08 04:07 | 23.30217 | -86.33283 | 35043 ft | 433 kts | 8° |
| 2026-05-08 04:07 | 23.36185 | -86.31887 | 35044 ft | 445 kts | 8° |
| 2026-05-08 04:08 | 23.42272 | -86.30449 | 35045 ft | 457 kts | 8° |
| 2026-05-08 04:08 | 23.48561 | -86.28966 | 35043 ft | 468 kts | 8° |
| 2026-05-08 04:09 | 23.54992 | -86.27448 | 35048 ft | 477 kts | 8° |
| 2026-05-08 04:09 | 23.61535 | -86.25897 | 35047 ft | 484 kts | 8° |
| 2026-05-08 04:10 | 23.68164 | -86.24332 | 35043 ft | 490 kts | 8° |
| 2026-05-08 04:10 | 23.74821 | -86.22766 | 35047 ft | 496 kts | 8° |
| 2026-05-08 04:11 | 23.78195 | -86.21973 | 35171 ft | 494 kts | 8° |
| 2026-05-08 04:11 | 23.81530 | -86.21185 | 35559 ft | 487 kts | 8° |
| 2026-05-08 04:11 | 23.84821 | -86.20404 | 35948 ft | 480 kts | 8° |
| 2026-05-08 04:11 | 23.88062 | -86.19630 | 36326 ft | 474 kts | 8° |
| 2026-05-08 04:12 | 23.91259 | -86.18864 | 36711 ft | 468 kts | 8° |
| 2026-05-08 04:12 | 23.94419 | -86.18103 | 37107 ft | 462 kts | 8° |
| 2026-05-08 04:12 | 23.97537 | -86.17349 | 37508 ft | 456 kts | 8° |
| 2026-05-08 04:12 | 24.00618 | -86.16600 | 37922 ft | 450 kts | 8° |
| 2026-05-08 04:13 | 24.03610 | -86.15870 | 38361 ft | 444 kts | 8° |
| 2026-05-08 04:13 | 24.06598 | -86.15137 | 38777 ft | 437 kts | 8° |
| 2026-05-08 04:13 | 24.09538 | -86.14411 | 39145 ft | 429 kts | 8° |
| 2026-05-08 04:13 | 24.12418 | -86.13697 | 39508 ft | 421 kts | 8° |
| 2026-05-08 04:14 | 24.15242 | -86.12991 | 39881 ft | 412 kts | 8° |
| 2026-05-08 04:14 | 24.18003 | -86.12296 | 40247 ft | 402 kts | 8° |
| 2026-05-08 04:14 | 24.20688 | -86.11614 | 40597 ft | 391 kts | 8° |
| 2026-05-08 04:14 | 24.23304 | -86.10944 | 40896 ft | 382 kts | 8° |
| 2026-05-08 04:15 | 24.28466 | -86.09618 | 40533 ft | 391 kts | 8° |
| 2026-05-08 04:15 | 24.31143 | -86.08939 | 40233 ft | 398 kts | 8° |
| 2026-05-08 04:15 | 24.33840 | -86.08256 | 40267 ft | 395 kts | 8° |
| 2026-05-08 04:16 | 24.36489 | -86.07581 | 40528 ft | 386 kts | 8° |
| 2026-05-08 04:16 | 24.39160 | -86.06850 | 39573 ft | 416 kts | 14° |
| 2026-05-08 04:16 | 24.41927 | -86.05609 | 38943 ft | 439 kts | 24° |
| 2026-05-08 04:16 | 24.44479 | -86.03630 | 38312 ft | 464 kts | 43° |
| 2026-05-08 04:17 | 24.46751 | -86.01001 | 37608 ft | 484 kts | 44° |
| 2026-05-08 04:17 | 24.49086 | -85.98275 | 37267 ft | 494 kts | 44° |
| 2026-05-08 04:17 | 24.51454 | -85.95513 | 37100 ft | 500 kts | 44° |
| 2026-05-08 04:17 | 24.53815 | -85.92760 | 36943 ft | 505 kts | 44° |
| 2026-05-08 04:18 | 24.56236 | -85.89941 | 36784 ft | 510 kts | 44° |
| 2026-05-08 04:18 | 24.58680 | -85.87097 | 36765 ft | 511 kts | 44° |
| 2026-05-08 04:18 | 24.61096 | -85.84280 | 37164 ft | 503 kts | 44° |
| 2026-05-08 04:18 | 24.63483 | -85.81495 | 37346 ft | 500 kts | 44° |
| 2026-05-08 04:19 | 24.65922 | -85.78658 | 36749 ft | 514 kts | 44° |
| 2026-05-08 04:19 | 24.68345 | -85.75838 | 37329 ft | 501 kts | 44° |
| 2026-05-08 04:19 | 24.70716 | -85.73072 | 37711 ft | 495 kts | 44° |
| 2026-05-08 04:19 | 24.73215 | -85.70380 | 36838 ft | 514 kts | 40° |
| 2026-05-08 04:20 | 24.75816 | -85.67789 | 37157 ft | 506 kts | 39° |
| 2026-05-08 04:20 | 24.78414 | -85.65290 | 37722 ft | 482 kts | 32° |
| 2026-05-08 04:20 | 24.81155 | -85.63342 | 37809 ft | 464 kts | 28° |
| 2026-05-08 04:20 | 24.83889 | -85.61448 | 37179 ft | 465 kts | 28° |
| 2026-05-08 04:21 | 24.86607 | -85.59523 | 36609 ft | 465 kts | 29° |
| 2026-05-08 04:21 | 24.89310 | -85.57569 | 36079 ft | 464 kts | 30° |
| 2026-05-08 04:21 | 24.91989 | -85.55594 | 35591 ft | 463 kts | 30° |
| 2026-05-08 04:21 | 24.94768 | -85.53885 | 35125 ft | 450 kts | 13° |
| 2026-05-08 04:22 | 24.97740 | -85.53100 | 35031 ft | 431 kts | 7° |
| 2026-05-08 04:22 | 25.00556 | -85.52041 | 35060 ft | 426 kts | 20° |
| 2026-05-08 04:22 | 25.05912 | -85.49229 | 35063 ft | 436 kts | 20° |
| 2026-05-08 04:23 | 25.11463 | -85.46320 | 35061 ft | 448 kts | 20° |
| 2026-05-08 04:23 | 25.17184 | -85.43338 | 35061 ft | 461 kts | 20° |
| 2026-05-08 04:24 | 25.23050 | -85.40290 | 35061 ft | 470 kts | 20° |
| 2026-05-08 04:24 | 25.28953 | -85.37213 | 35058 ft | 473 kts | 20° |
| 2026-05-08 04:25 | 25.35021 | -85.34534 | 35060 ft | 464 kts | 6° |
| 2026-05-08 04:25 | 25.41355 | -85.33747 | 35060 ft | 459 kts | 360° |
| 2026-05-08 04:26 | 25.47723 | -85.33108 | 35063 ft | 460 kts | 0° |
| 2026-05-08 04:26 | 25.54092 | -85.32463 | 35065 ft | 460 kts | 0° |
| 2026-05-08 04:27 | 25.60436 | -85.31807 | 35078 ft | 465 kts | 360° |
| 2026-05-08 04:27 | 25.66951 | -85.31146 | 35061 ft | 475 kts | 0° |
| 2026-05-08 04:28 | 25.73585 | -85.30459 | 35064 ft | 482 kts | 0° |
| 2026-05-08 04:28 | 25.80297 | -85.29758 | 35064 ft | 488 kts | 0° |
| 2026-05-08 04:29 | 25.87091 | -85.29052 | 35058 ft | 485 kts | 0° |
| 2026-05-08 04:29 | 25.90340 | -85.28706 | 35061 ft | 469 kts | 360° |
| 2026-05-08 04:29 | 25.93528 | -85.28371 | 35063 ft | 462 kts | 360° |
| 2026-05-08 04:30 | 25.99911 | -85.27720 | 35063 ft | 459 kts | 359° |
| 2026-05-08 04:30 | 26.06273 | -85.27070 | 35063 ft | 459 kts | 360° |
| 2026-05-08 04:31 | 26.12635 | -85.26411 | 35063 ft | 459 kts | 360° |
| 2026-05-08 04:31 | 26.18956 | -85.25758 | 35080 ft | 459 kts | 359° |
| 2026-05-08 04:32 | 26.25318 | -85.25100 | 35070 ft | 459 kts | 359° |
| 2026-05-08 04:32 | 26.31686 | -85.24440 | 35067 ft | 460 kts | 359° |
| 2026-05-08 04:33 | 26.38054 | -85.23658 | 35067 ft | 465 kts | 7° |
| 2026-05-08 04:33 | 26.44253 | -85.21344 | 35066 ft | 472 kts | 14° |
| 2026-05-08 04:34 | 26.50383 | -85.18854 | 35079 ft | 472 kts | 14° |
| 2026-05-08 04:34 | 26.56569 | -85.16346 | 35069 ft | 474 kts | 14° |
| 2026-05-08 04:35 | 26.62766 | -85.13825 | 35069 ft | 474 kts | 14° |
| 2026-05-08 04:35 | 26.68970 | -85.11299 | 35073 ft | 475 kts | 14° |
| 2026-05-08 04:36 | 26.75176 | -85.08771 | 35069 ft | 475 kts | 14° |
| 2026-05-08 04:36 | 26.81340 | -85.06252 | 35080 ft | 475 kts | 14° |
| 2026-05-08 04:37 | 26.87550 | -85.03716 | 35074 ft | 475 kts | 14° |
| 2026-05-08 04:37 | 26.93766 | -85.01176 | 35072 ft | 475 kts | 14° |
| 2026-05-08 04:38 | 26.99979 | -84.98631 | 35074 ft | 475 kts | 14° |
| 2026-05-08 04:38 | 27.06195 | -84.96089 | 35073 ft | 475 kts | 14° |
| 2026-05-08 04:39 | 27.12367 | -84.93560 | 35080 ft | 476 kts | 14° |
| 2026-05-08 04:39 | 27.18587 | -84.91008 | 35069 ft | 476 kts | 13° |
| 2026-05-08 04:40 | 27.24810 | -84.88446 | 35066 ft | 477 kts | 14° |
| 2026-05-08 04:40 | 27.31043 | -84.85877 | 35068 ft | 477 kts | 14° |
| 2026-05-08 04:41 | 27.37281 | -84.83311 | 35069 ft | 477 kts | 14° |
| 2026-05-08 04:41 | 27.43475 | -84.80750 | 35079 ft | 478 kts | 14° |
| 2026-05-08 04:43 | 27.44451 | -84.80288 | 35189 ft | 477 kts | 18° |
| 2026-05-08 04:43 | 27.47360 | -84.78375 | 35016 ft | 491 kts | 33° |
| 2026-05-08 04:43 | 27.49785 | -84.75702 | 35056 ft | 502 kts | 48° |
| 2026-05-08 04:43 | 27.51628 | -84.72337 | 35060 ft | 510 kts | 63° |
| 2026-05-08 04:44 | 27.54429 | -84.64968 | 35056 ft | 512 kts | 64° |
| 2026-05-08 04:44 | 27.57211 | -84.57571 | 35057 ft | 512 kts | 64° |
| 2026-05-08 04:45 | 27.60001 | -84.50179 | 35058 ft | 512 kts | 64° |
| 2026-05-08 04:45 | 27.62762 | -84.42834 | 35062 ft | 512 kts | 64° |
| 2026-05-08 04:46 | 27.65535 | -84.35430 | 35064 ft | 512 kts | 64° |
| 2026-05-08 04:46 | 27.68317 | -84.28030 | 35067 ft | 512 kts | 64° |
| 2026-05-08 04:47 | 27.70631 | -84.21876 | 35063 ft | 513 kts | 64° |
| 2026-05-08 04:48 | 27.72599 | -84.16467 | 35062 ft | 513 kts | 65° |
| 2026-05-08 04:48 | 27.75379 | -84.09046 | 35064 ft | 513 kts | 64° |
| 2026-05-08 04:49 | 27.78179 | -84.01640 | 35069 ft | 513 kts | 64° |
| 2026-05-08 04:49 | 27.80953 | -83.94213 | 35071 ft | 513 kts | 64° |
| 2026-05-08 04:50 | 27.83695 | -83.86819 | 35072 ft | 514 kts | 64° |
| 2026-05-08 04:50 | 27.86444 | -83.79371 | 35076 ft | 514 kts | 64° |
| 2026-05-08 04:51 | 27.89189 | -83.71925 | 35072 ft | 513 kts | 64° |
| 2026-05-08 04:51 | 27.91942 | -83.64475 | 35088 ft | 513 kts | 64° |
| 2026-05-08 04:52 | 27.94688 | -83.57018 | 35056 ft | 514 kts | 64° |
| 2026-05-08 04:52 | 27.97434 | -83.49539 | 35047 ft | 514 kts | 63° |
| 2026-05-08 04:53 | 27.99137 | -83.46092 | 35052 ft | 506 kts | 47° |
| 2026-05-08 04:53 | 28.01542 | -83.43268 | 35046 ft | 492 kts | 31° |
| 2026-05-08 04:53 | 28.04407 | -83.41291 | 35042 ft | 477 kts | 15° |
| 2026-05-08 04:53 | 28.07520 | -83.40163 | 35045 ft | 466 kts | 6° |
| 2026-05-08 04:54 | 28.13825 | -83.38372 | 35051 ft | 468 kts | 6° |
| 2026-05-08 04:54 | 28.17994 | -83.37188 | 35048 ft | 469 kts | 6° |
| 2026-05-08 04:55 | 28.23457 | -83.35625 | 35059 ft | 469 kts | 6° |
| 2026-05-08 04:55 | 28.29791 | -83.33799 | 35056 ft | 469 kts | 6° |
| 2026-05-08 04:56 | 28.36117 | -83.31968 | 35057 ft | 470 kts | 6° |
| 2026-05-08 04:56 | 28.42451 | -83.30133 | 35061 ft | 470 kts | 6° |
| 2026-05-08 04:57 | 28.48787 | -83.28302 | 35060 ft | 470 kts | 6° |
| 2026-05-08 04:57 | 28.55081 | -83.26479 | 35068 ft | 470 kts | 6° |
| 2026-05-08 04:58 | 28.61422 | -83.24636 | 35063 ft | 470 kts | 6° |
| 2026-05-08 04:58 | 28.67755 | -83.22798 | 35060 ft | 470 kts | 6° |
| 2026-05-08 04:59 | 28.74098 | -83.20968 | 35058 ft | 470 kts | 6° |
| 2026-05-08 04:59 | 28.80440 | -83.19128 | 35077 ft | 471 kts | 6° |
| 2026-05-08 05:00 | 28.86741 | -83.17283 | 35070 ft | 471 kts | 6° |
| 2026-05-08 05:00 | 28.93091 | -83.15427 | 35066 ft | 471 kts | 6° |
| 2026-05-08 05:01 | 28.99439 | -83.13576 | 35063 ft | 471 kts | 6° |
| 2026-05-08 05:01 | 29.05782 | -83.11718 | 35061 ft | 471 kts | 6° |
| 2026-05-08 05:02 | 29.12085 | -83.09878 | 35069 ft | 471 kts | 5° |
| 2026-05-08 05:02 | 29.18439 | -83.08019 | 35060 ft | 472 kts | 6° |
| 2026-05-08 05:03 | 29.24803 | -83.06143 | 35057 ft | 472 kts | 6° |
| 2026-05-08 05:03 | 29.31170 | -83.04269 | 35052 ft | 472 kts | 6° |
| 2026-05-08 05:04 | 29.37490 | -83.02412 | 35075 ft | 472 kts | 5° |
| 2026-05-08 05:04 | 29.43859 | -83.00536 | 35066 ft | 473 kts | 5° |
| 2026-05-08 05:05 | 29.50240 | -82.98650 | 35060 ft | 473 kts | 5° |
| 2026-05-08 05:05 | 29.56621 | -82.96768 | 35053 ft | 474 kts | 5° |
| 2026-05-08 05:06 | 29.62999 | -82.94886 | 35050 ft | 473 kts | 5° |
| 2026-05-08 05:06 | 29.69341 | -82.93011 | 35061 ft | 474 kts | 5° |
| 2026-05-08 05:07 | 29.75725 | -82.91117 | 35049 ft | 474 kts | 5° |
| 2026-05-08 05:07 | 29.82109 | -82.89221 | 35049 ft | 474 kts | 5° |
| 2026-05-08 05:08 | 29.88498 | -82.87313 | 35042 ft | 474 kts | 5° |
| 2026-05-08 05:08 | 29.94891 | -82.85405 | 35068 ft | 474 kts | 5° |
| 2026-05-08 05:09 | 30.01237 | -82.83515 | 35056 ft | 474 kts | 5° |
| 2026-05-08 05:09 | 30.07632 | -82.81616 | 35054 ft | 474 kts | 5° |
| 2026-05-08 05:10 | 30.17224 | -82.78751 | 35051 ft | 475 kts | 5° |
| 2026-05-08 05:11 | 30.23615 | -82.76835 | 35052 ft | 475 kts | 5° |
| 2026-05-08 05:11 | 30.29971 | -82.74930 | 35036 ft | 475 kts | 5° |
| 2026-05-08 05:12 | 30.36369 | -82.73010 | 35033 ft | 475 kts | 5° |
| 2026-05-08 05:12 | 30.42770 | -82.71087 | 35025 ft | 475 kts | 5° |
| 2026-05-08 05:13 | 30.49172 | -82.69160 | 35019 ft | 475 kts | 5° |
| 2026-05-08 05:13 | 30.55537 | -82.67444 | 35011 ft | 470 kts | 1° |
| 2026-05-08 05:14 | 30.61953 | -82.66138 | 35014 ft | 467 kts | 359° |
| 2026-05-08 05:14 | 30.68376 | -82.64914 | 35011 ft | 468 kts | 359° |
| 2026-05-08 05:15 | 30.74801 | -82.63590 | 35023 ft | 469 kts | 0° |
| 2026-05-08 05:15 | 30.81220 | -82.62193 | 35018 ft | 470 kts | 0° |
| 2026-05-08 05:16 | 30.87648 | -82.60797 | 35014 ft | 470 kts | 0° |
| 2026-05-08 05:16 | 30.94032 | -82.59423 | 35035 ft | 470 kts | 0° |
| 2026-05-08 05:17 | 31.00456 | -82.58048 | 35036 ft | 470 kts | 0° |
| 2026-05-08 05:17 | 31.06884 | -82.56649 | 35063 ft | 473 kts | 2° |
| 2026-05-08 05:17 | 31.10060 | -82.55441 | 35052 ft | 490 kts | 15° |
| 2026-05-08 05:18 | 31.13088 | -82.53661 | 35040 ft | 495 kts | 18° |
| 2026-05-08 05:18 | 31.19191 | -82.49938 | 35037 ft | 495 kts | 18° |
| 2026-05-08 05:19 | 31.25299 | -82.46196 | 35041 ft | 496 kts | 18° |
| 2026-05-08 05:19 | 31.31417 | -82.42471 | 35061 ft | 496 kts | 17° |
| 2026-05-08 05:20 | 31.37540 | -82.38752 | 35052 ft | 496 kts | 18° |
| 2026-05-08 05:20 | 31.43662 | -82.35024 | 35037 ft | 496 kts | 18° |
| 2026-05-08 05:21 | 31.49739 | -82.31311 | 35025 ft | 496 kts | 18° |
| 2026-05-08 05:21 | 31.55856 | -82.27571 | 35014 ft | 496 kts | 18° |
| 2026-05-08 05:22 | 31.61975 | -82.23822 | 35034 ft | 496 kts | 17° |
| 2026-05-08 05:22 | 31.68086 | -82.20073 | 35016 ft | 496 kts | 17° |
| 2026-05-08 05:23 | 31.74153 | -82.16339 | 35011 ft | 496 kts | 17° |
| 2026-05-08 05:23 | 31.80263 | -82.12572 | 35008 ft | 496 kts | 17° |
| 2026-05-08 05:24 | 31.86369 | -82.08809 | 35011 ft | 495 kts | 17° |
| 2026-05-08 05:24 | 31.92468 | -82.05055 | 35009 ft | 495 kts | 17° |
| 2026-05-08 05:25 | 31.98522 | -82.01316 | 35014 ft | 495 kts | 17° |
| 2026-05-08 05:25 | 32.04627 | -81.97533 | 35015 ft | 496 kts | 17° |
| 2026-05-08 05:26 | 32.10734 | -81.93741 | 35047 ft | 497 kts | 17° |
| 2026-05-08 05:26 | 32.16573 | -81.89185 | 35025 ft | 519 kts | 33° |
| 2026-05-08 05:27 | 32.21911 | -81.83419 | 35016 ft | 521 kts | 33° |
| 2026-05-08 05:27 | 32.27207 | -81.77657 | 35011 ft | 521 kts | 33° |
| 2026-05-08 05:28 | 32.32550 | -81.71856 | 35000 ft | 522 kts | 33° |
| 2026-05-08 05:28 | 32.37894 | -81.66056 | 35039 ft | 522 kts | 33° |
| 2026-05-08 05:29 | 32.43253 | -81.60230 | 35018 ft | 523 kts | 33° |
| 2026-05-08 05:29 | 32.48572 | -81.54442 | 34997 ft | 523 kts | 33° |
| 2026-05-08 05:30 | 32.53929 | -81.48599 | 34993 ft | 523 kts | 33° |
| 2026-05-08 05:30 | 32.59279 | -81.42742 | 34997 ft | 524 kts | 33° |
| 2026-05-08 05:31 | 32.64636 | -81.36879 | 34983 ft | 523 kts | 33° |
| 2026-05-08 05:31 | 32.69983 | -81.31017 | 34984 ft | 524 kts | 33° |
| 2026-05-08 05:32 | 32.75300 | -81.25180 | 34980 ft | 524 kts | 33° |
| 2026-05-08 05:32 | 32.80651 | -81.19287 | 34998 ft | 525 kts | 33° |
| 2026-05-08 05:33 | 32.86003 | -81.13385 | 35040 ft | 525 kts | 33° |
| 2026-05-08 05:33 | 32.91354 | -81.07482 | 35025 ft | 524 kts | 33° |
| 2026-05-08 05:34 | 32.96655 | -81.01604 | 35018 ft | 524 kts | 33° |
| 2026-05-08 05:34 | 33.01989 | -80.95691 | 35011 ft | 524 kts | 33° |
| 2026-05-08 05:35 | 33.07326 | -80.89781 | 34991 ft | 524 kts | 33° |
| 2026-05-08 05:35 | 33.12656 | -80.83859 | 34996 ft | 524 kts | 33° |
| 2026-05-08 05:36 | 33.17946 | -80.77960 | 35005 ft | 523 kts | 33° |
| 2026-05-08 05:36 | 33.23263 | -80.72021 | 35011 ft | 523 kts | 33° |
| 2026-05-08 05:37 | 33.28580 | -80.66079 | 35015 ft | 523 kts | 33° |
| 2026-05-08 05:37 | 33.33901 | -80.60136 | 35036 ft | 524 kts | 33° |
| 2026-05-08 05:38 | 33.39209 | -80.54182 | 34990 ft | 523 kts | 33° |
| 2026-05-08 05:38 | 33.44475 | -80.48263 | 34998 ft | 523 kts | 33° |
| 2026-05-08 05:38 | 33.47039 | -80.45139 | 34999 ft | 534 kts | 43° |
| 2026-05-08 05:39 | 33.49091 | -80.41369 | 35009 ft | 546 kts | 55° |
| 2026-05-08 05:39 | 33.52694 | -80.33350 | 35023 ft | 547 kts | 56° |
| 2026-05-08 05:40 | 33.56275 | -80.25300 | 35030 ft | 548 kts | 56° |
| 2026-05-08 05:40 | 33.59839 | -80.17288 | 35053 ft | 549 kts | 55° |
| 2026-05-08 05:41 | 33.63432 | -80.09213 | 35031 ft | 549 kts | 55° |
| 2026-05-08 05:41 | 33.67028 | -80.01135 | 35010 ft | 549 kts | 55° |
| 2026-05-08 05:42 | 33.70621 | -79.93052 | 35015 ft | 549 kts | 56° |
| 2026-05-08 05:42 | 33.74204 | -79.84962 | 35015 ft | 549 kts | 56° |
| 2026-05-08 05:43 | 33.77756 | -79.76911 | 34987 ft | 549 kts | 56° |
| 2026-05-08 05:43 | 33.81313 | -79.68822 | 35018 ft | 549 kts | 56° |
| 2026-05-08 05:44 | 33.84876 | -79.60698 | 35010 ft | 549 kts | 56° |
| 2026-05-08 05:44 | 33.88438 | -79.52567 | 35001 ft | 549 kts | 56° |
| 2026-05-08 05:45 | 33.91976 | -79.44483 | 35011 ft | 549 kts | 56° |
| 2026-05-08 05:45 | 33.95531 | -79.36344 | 35019 ft | 549 kts | 56° |
| 2026-05-08 05:46 | 33.99090 | -79.28193 | 35023 ft | 549 kts | 56° |
| 2026-05-08 05:46 | 34.02642 | -79.20037 | 35054 ft | 550 kts | 56° |
| 2026-05-08 05:47 | 34.06350 | -79.12019 | 35006 ft | 542 kts | 52° |
| 2026-05-08 05:47 | 34.08264 | -79.08235 | 35001 ft | 531 kts | 50° |
| 2026-05-08 05:47 | 34.10230 | -79.04476 | 34992 ft | 528 kts | 50° |
| 2026-05-08 05:48 | 34.14151 | -78.97005 | 34990 ft | 527 kts | 50° |
| 2026-05-08 05:48 | 34.17975 | -78.89456 | 34979 ft | 528 kts | 51° |
| 2026-05-08 05:49 | 34.21735 | -78.81839 | 34974 ft | 528 kts | 52° |
| 2026-05-08 05:49 | 34.25485 | -78.74207 | 35037 ft | 528 kts | 51° |
| 2026-05-08 05:50 | 34.29222 | -78.66637 | 35028 ft | 528 kts | 51° |
| 2026-05-08 05:50 | 34.33243 | -78.59287 | 35023 ft | 512 kts | 36° |
| 2026-05-08 05:50 | 34.35839 | -78.56474 | 35017 ft | 495 kts | 26° |
| 2026-05-08 05:51 | 34.38559 | -78.53915 | 35010 ft | 495 kts | 26° |
| 2026-05-08 05:51 | 34.44003 | -78.48799 | 34998 ft | 496 kts | 26° |
| 2026-05-08 05:52 | 34.49411 | -78.43689 | 35054 ft | 496 kts | 26° |
| 2026-05-08 05:52 | 34.54843 | -78.38537 | 35041 ft | 495 kts | 26° |
| 2026-05-08 05:53 | 34.60264 | -78.33385 | 35031 ft | 495 kts | 26° |
| 2026-05-08 05:53 | 34.65679 | -78.28238 | 35016 ft | 494 kts | 26° |
| 2026-05-08 05:54 | 34.71090 | -78.23088 | 35011 ft | 493 kts | 26° |
| 2026-05-08 05:54 | 34.76443 | -78.17973 | 35007 ft | 493 kts | 26° |
| 2026-05-08 05:55 | 34.81838 | -78.12814 | 35012 ft | 493 kts | 26° |
| 2026-05-08 05:55 | 34.87223 | -78.07650 | 35034 ft | 492 kts | 26° |
| 2026-05-08 05:56 | 34.92607 | -78.02505 | 35047 ft | 493 kts | 25° |
| 2026-05-08 05:56 | 34.97960 | -77.97398 | 35003 ft | 492 kts | 25° |
| 2026-05-08 05:57 | 35.03359 | -77.92229 | 34993 ft | 494 kts | 25° |
| 2026-05-08 05:57 | 35.08771 | -77.87039 | 34996 ft | 495 kts | 25° |
| 2026-05-08 05:58 | 35.14188 | -77.81828 | 35046 ft | 496 kts | 25° |
| 2026-05-08 05:58 | 35.19575 | -77.76639 | 35035 ft | 497 kts | 25° |
| 2026-05-08 05:59 | 35.25002 | -77.71411 | 35039 ft | 498 kts | 25° |
| 2026-05-08 05:59 | 35.30439 | -77.66162 | 35046 ft | 498 kts | 25° |
| 2026-05-08 06:00 | 35.35881 | -77.60904 | 35037 ft | 498 kts | 25° |
| 2026-05-08 06:00 | 35.41321 | -77.55632 | 35030 ft | 499 kts | 25° |
| 2026-05-08 06:01 | 35.46719 | -77.50373 | 35030 ft | 499 kts | 26° |
| 2026-05-08 06:01 | 35.52154 | -77.45077 | 35030 ft | 499 kts | 25° |
| 2026-05-08 06:02 | 35.57583 | -77.39786 | 35034 ft | 498 kts | 26° |
| 2026-05-08 06:02 | 35.63017 | -77.34477 | 35008 ft | 499 kts | 24° |
| 2026-05-08 06:03 | 35.68413 | -77.29201 | 35003 ft | 499 kts | 24° |
| 2026-05-08 06:03 | 35.73852 | -77.23871 | 34998 ft | 500 kts | 25° |
| 2026-05-08 06:04 | 35.79300 | -77.18525 | 34990 ft | 501 kts | 25° |
| 2026-05-08 06:04 | 35.84748 | -77.13172 | 35018 ft | 501 kts | 24° |
| 2026-05-08 06:05 | 35.90205 | -77.07803 | 35040 ft | 502 kts | 24° |
| 2026-05-08 06:05 | 35.92954 | -77.05335 | 35028 ft | 485 kts | 15° |
| 2026-05-08 06:05 | 35.95841 | -77.03207 | 35019 ft | 483 kts | 14° |
| 2026-05-08 06:06 | 36.01629 | -76.98990 | 35006 ft | 483 kts | 14° |
| 2026-05-08 06:06 | 36.07426 | -76.94780 | 34980 ft | 482 kts | 13° |
| 2026-05-08 06:07 | 36.13203 | -76.90562 | 34977 ft | 482 kts | 13° |
| 2026-05-08 06:07 | 36.18951 | -76.86358 | 34949 ft | 484 kts | 14° |
| 2026-05-08 06:08 | 36.24745 | -76.82106 | 34961 ft | 484 kts | 14° |
| 2026-05-08 06:08 | 36.30545 | -76.77842 | 35006 ft | 485 kts | 13° |
| 2026-05-08 06:09 | 36.36355 | -76.73572 | 34995 ft | 485 kts | 13° |
| 2026-05-08 06:09 | 36.42125 | -76.69321 | 34990 ft | 486 kts | 13° |
| 2026-05-08 06:10 | 36.47937 | -76.65020 | 34992 ft | 486 kts | 13° |
| 2026-05-08 06:10 | 36.53731 | -76.60726 | 34962 ft | 482 kts | 13° |
| 2026-05-08 06:11 | 36.59494 | -76.56451 | 34994 ft | 482 kts | 13° |
| 2026-05-08 06:11 | 36.65225 | -76.52208 | 34998 ft | 483 kts | 13° |
| 2026-05-08 06:12 | 36.71011 | -76.47918 | 35031 ft | 484 kts | 13° |
| 2026-05-08 06:12 | 36.76803 | -76.43601 | 35028 ft | 485 kts | 14° |
| 2026-05-08 06:13 | 36.82587 | -76.39271 | 35029 ft | 485 kts | 14° |
| 2026-05-08 06:13 | 36.88374 | -76.34937 | 35005 ft | 485 kts | 14° |
| 2026-05-08 06:14 | 36.94119 | -76.30630 | 35008 ft | 484 kts | 14° |
| 2026-05-08 06:14 | 36.99863 | -76.26324 | 34977 ft | 482 kts | 14° |
| 2026-05-08 06:15 | 37.04640 | -76.22734 | 34968 ft | 482 kts | 14° |
| 2026-05-08 06:15 | 37.11330 | -76.17714 | 34973 ft | 483 kts | 14° |
| 2026-05-08 06:16 | 37.17091 | -76.13373 | 34974 ft | 483 kts | 14° |
| 2026-05-08 06:16 | 37.22836 | -76.09014 | 34974 ft | 483 kts | 14° |
| 2026-05-08 06:17 | 37.31427 | -76.02502 | 34974 ft | 483 kts | 14° |
| 2026-05-08 06:17 | 37.37182 | -75.98137 | 35009 ft | 483 kts | 15° |
| 2026-05-08 06:18 | 37.42915 | -75.93771 | 34974 ft | 481 kts | 15° |
| 2026-05-08 06:18 | 37.47668 | -75.90148 | 34971 ft | 481 kts | 15° |
| 2026-05-08 06:19 | 37.53395 | -75.85779 | 34967 ft | 481 kts | 15° |
| 2026-05-08 06:19 | 37.60068 | -75.80750 | 34980 ft | 480 kts | 14° |
| 2026-05-08 06:20 | 37.64851 | -75.77194 | 34973 ft | 480 kts | 14° |
| 2026-05-08 06:20 | 37.70604 | -75.72891 | 34974 ft | 481 kts | 14° |
| 2026-05-08 06:21 | 37.76359 | -75.68557 | 34973 ft | 482 kts | 15° |
| 2026-05-08 06:21 | 37.82113 | -75.64214 | 34997 ft | 482 kts | 15° |
| 2026-05-08 06:22 | 37.87836 | -75.59725 | 34995 ft | 488 kts | 18° |
| 2026-05-08 06:22 | 37.93442 | -75.54806 | 34986 ft | 492 kts | 20° |
| 2026-05-08 06:23 | 37.98975 | -75.49802 | 35041 ft | 492 kts | 20° |
| 2026-05-08 06:23 | 38.04547 | -75.44857 | 34945 ft | 486 kts | 20° |
| 2026-05-08 06:24 | 38.10144 | -75.40136 | 34923 ft | 481 kts | 18° |
| 2026-05-08 06:24 | 38.15814 | -75.35625 | 34935 ft | 481 kts | 17° |
| 2026-05-08 06:25 | 38.21442 | -75.31127 | 34985 ft | 482 kts | 18° |
| 2026-05-08 06:25 | 38.24319 | -75.29026 | 34984 ft | 466 kts | 9° |
| 2026-05-08 06:25 | 38.27289 | -75.27686 | 34980 ft | 440 kts | 356° |
| 2026-05-08 06:26 | 38.33201 | -75.26385 | 34971 ft | 430 kts | 353° |
| 2026-05-08 06:26 | 38.39115 | -75.25175 | 34966 ft | 430 kts | 353° |
| 2026-05-08 06:27 | 38.44997 | -75.23949 | 34965 ft | 431 kts | 353° |
| 2026-05-08 06:27 | 38.50907 | -75.22690 | 34948 ft | 431 kts | 353° |
| 2026-05-08 06:28 | 38.56825 | -75.21441 | 34942 ft | 431 kts | 353° |
| 2026-05-08 06:28 | 38.62750 | -75.20198 | 34948 ft | 432 kts | 353° |
| 2026-05-08 06:29 | 38.68693 | -75.18766 | 34975 ft | 449 kts | 2° |
| 2026-05-08 06:29 | 38.71606 | -75.17187 | 34963 ft | 474 kts | 16° |
| 2026-05-08 06:29 | 38.74384 | -75.14748 | 34956 ft | 491 kts | 25° |
| 2026-05-08 06:30 | 38.79802 | -75.09388 | 34947 ft | 492 kts | 25° |
| 2026-05-08 06:30 | 38.85231 | -75.04024 | 34996 ft | 493 kts | 25° |
| 2026-05-08 06:31 | 38.90671 | -74.98670 | 34978 ft | 493 kts | 25° |
| 2026-05-08 06:31 | 38.96089 | -74.93349 | 34969 ft | 494 kts | 25° |
| 2026-05-08 06:32 | 39.01539 | -74.87971 | 34966 ft | 494 kts | 25° |
| 2026-05-08 06:32 | 39.06990 | -74.82572 | 34959 ft | 494 kts | 26° |
| 2026-05-08 06:33 | 39.12401 | -74.77119 | 34950 ft | 496 kts | 27° |
| 2026-05-08 06:33 | 39.17676 | -74.71426 | 34943 ft | 499 kts | 29° |
| 2026-05-08 06:34 | 39.22943 | -74.65583 | 34940 ft | 499 kts | 29° |
| 2026-05-08 06:34 | 39.28223 | -74.59802 | 34924 ft | 496 kts | 30° |
| 2026-05-08 06:35 | 39.33509 | -74.54099 | 34919 ft | 495 kts | 29° |
| 2026-05-08 06:35 | 39.38762 | -74.48418 | 34921 ft | 496 kts | 30° |
| 2026-05-08 06:36 | 39.44043 | -74.42653 | 34962 ft | 497 kts | 30° |
| 2026-05-08 06:36 | 39.49317 | -74.36880 | 34952 ft | 496 kts | 30° |
| 2026-05-08 06:37 | 39.54585 | -74.31115 | 34936 ft | 496 kts | 30° |
| 2026-05-08 06:37 | 39.59855 | -74.25343 | 34934 ft | 496 kts | 30° |
| 2026-05-08 06:38 | 39.65083 | -74.19595 | 34937 ft | 496 kts | 31° |
| 2026-05-08 06:38 | 39.70346 | -74.13790 | 34934 ft | 496 kts | 31° |
| 2026-05-08 06:39 | 39.75605 | -74.07988 | 34933 ft | 496 kts | 31° |
| 2026-05-08 06:39 | 39.80866 | -74.02175 | 34978 ft | 496 kts | 31° |
| 2026-05-08 06:40 | 39.86287 | -73.97021 | 34901 ft | 475 kts | 18° |
| 2026-05-08 06:40 | 39.92095 | -73.92918 | 34903 ft | 475 kts | 17° |
| 2026-05-08 06:41 | 39.97913 | -73.88824 | 34909 ft | 476 kts | 18° |
| 2026-05-08 06:41 | 40.03872 | -73.85613 | 34951 ft | 444 kts | 355° |
| 2026-05-08 06:42 | 40.09930 | -73.84462 | 34927 ft | 447 kts | 358° |
| 2026-05-08 06:42 | 40.16065 | -73.82922 | 34916 ft | 450 kts | 359° |
| 2026-05-08 06:43 | 40.22208 | -73.81369 | 34943 ft | 450 kts | 358° |
| 2026-05-08 06:43 | 40.28368 | -73.79925 | 34922 ft | 450 kts | 358° |
| 2026-05-08 06:44 | 40.34540 | -73.78522 | 34911 ft | 451 kts | 358° |
| 2026-05-08 06:44 | 40.40683 | -73.77116 | 34907 ft | 451 kts | 358° |
| 2026-05-08 06:45 | 40.46903 | -73.75676 | 34913 ft | 455 kts | 358° |
| 2026-05-08 06:45 | 40.53141 | -73.74219 | 34908 ft | 456 kts | 358° |
| 2026-05-08 06:46 | 40.59351 | -73.72771 | 34908 ft | 457 kts | 358° |
| 2026-05-08 06:46 | 40.65611 | -73.71296 | 34938 ft | 458 kts | 359° |
| 2026-05-08 06:47 | 40.71883 | -73.69824 | 34930 ft | 458 kts | 359° |
| 2026-05-08 06:47 | 40.74989 | -73.69443 | 34923 ft | 435 kts | 342° |
| 2026-05-08 06:47 | 40.77780 | -73.70375 | 34912 ft | 397 kts | 320° |
| 2026-05-08 06:48 | 40.79860 | -73.72471 | 34918 ft | 363 kts | 298° |
| 2026-05-08 06:48 | 40.80954 | -73.75302 | 34916 ft | 338 kts | 276° |
| 2026-05-08 06:48 | 40.80925 | -73.78315 | 34911 ft | 329 kts | 253° |
| 2026-05-08 06:48 | 40.79822 | -73.80915 | 34919 ft | 339 kts | 231° |
| 2026-05-08 06:49 | 40.77788 | -73.82679 | 34916 ft | 368 kts | 209° |
| 2026-05-08 06:49 | 40.75232 | -73.83506 | 34917 ft | 383 kts | 203° |
| 2026-05-08 06:49 | 40.69991 | -73.84959 | 34916 ft | 386 kts | 203° |
| 2026-05-08 06:50 | 40.64739 | -73.86440 | 34915 ft | 386 kts | 203° |
| 2026-05-08 06:50 | 40.59500 | -73.87953 | 34915 ft | 385 kts | 204° |
| 2026-05-08 06:51 | 40.54299 | -73.89456 | 34917 ft | 385 kts | 204° |
| 2026-05-08 06:51 | 40.49062 | -73.90969 | 34918 ft | 385 kts | 204° |
| 2026-05-08 06:52 | 40.43824 | -73.92483 | 34921 ft | 385 kts | 204° |
| 2026-05-08 06:52 | 40.38575 | -73.93995 | 34900 ft | 388 kts | 204° |
| 2026-05-08 06:53 | 40.33294 | -73.95507 | 34910 ft | 388 kts | 204° |
| 2026-05-08 06:53 | 40.28051 | -73.97010 | 34915 ft | 388 kts | 204° |
| 2026-05-08 06:54 | 40.22778 | -73.98521 | 34922 ft | 388 kts | 204° |
| 2026-05-08 06:54 | 40.17501 | -74.00026 | 34900 ft | 389 kts | 204° |
| 2026-05-08 06:55 | 40.12212 | -74.01531 | 34906 ft | 389 kts | 204° |
| 2026-05-08 06:55 | 40.06945 | -74.03030 | 34906 ft | 390 kts | 204° |
| 2026-05-08 06:56 | 40.01641 | -74.04540 | 34870 ft | 390 kts | 205° |
| 2026-05-08 06:56 | 39.96311 | -74.06050 | 34902 ft | 393 kts | 204° |
| 2026-05-08 06:57 | 39.90960 | -74.07562 | 34906 ft | 393 kts | 204° |
| 2026-05-08 06:57 | 39.85671 | -74.09058 | 34913 ft | 393 kts | 204° |
| 2026-05-08 06:58 | 39.80323 | -74.10571 | 34865 ft | 393 kts | 205° |
| 2026-05-08 06:58 | 39.74980 | -74.12079 | 34903 ft | 393 kts | 205° |
| 2026-05-08 06:59 | 39.71855 | -74.12961 | 34908 ft | 393 kts | 205° |